Aviation Digital Data Service (ADDS)

Output produced by METARs form (1557 UTC 19 November 2017)
found at http://aviationweather.gov/adds/metars/
 
KLFT 191553Z 04013G24KT 10SM CLR 03/M01 A3027 RMK AO2 PK WND 01027/1505 SLP251 T00281006